createdAt,value
2019-04-25T00:00:56.822Z,968.94
2019-04-25T00:01:57.435Z,968.90
2019-04-25T00:02:56.832Z,968.89
2019-04-25T00:03:56.821Z,968.87
2019-04-25T00:04:56.853Z,968.85
2019-04-25T00:05:56.863Z,968.89
2019-04-25T00:06:56.824Z,968.81
2019-04-25T00:07:56.822Z,968.84
2019-04-25T00:08:56.821Z,968.81
2019-04-25T00:09:56.846Z,968.78
2019-04-25T00:10:56.830Z,968.75
2019-04-25T00:11:58.380Z,968.76
2019-04-25T00:12:56.915Z,968.75
2019-04-25T00:13:57.074Z,968.72
2019-04-25T00:14:56.844Z,968.73
2019-04-25T00:15:56.815Z,968.76
2019-04-25T00:16:56.820Z,968.79
2019-04-25T00:17:56.816Z,968.84
2019-04-25T00:18:56.817Z,968.86
2019-04-25T00:19:56.919Z,968.88
2019-04-25T00:20:56.815Z,968.91
2019-04-25T00:21:56.813Z,968.95
2019-04-25T00:22:56.810Z,969.00
2019-04-25T00:23:56.858Z,968.98
2019-04-25T00:24:56.813Z,968.96
2019-04-25T00:25:56.840Z,968.90
2019-04-25T00:26:56.811Z,968.88
2019-04-25T00:27:56.809Z,968.94
2019-04-25T00:28:56.809Z,969.01
2019-04-25T00:29:56.807Z,969.04
2019-04-25T00:30:56.835Z,969.05
2019-04-25T00:31:56.812Z,969.05
2019-04-25T00:32:56.912Z,969.10
2019-04-25T00:33:56.807Z,969.12
2019-04-25T00:34:56.806Z,969.16
2019-04-25T00:35:56.833Z,969.20
2019-04-25T00:36:56.808Z,969.18
2019-04-25T00:37:56.807Z,969.18
2019-04-25T00:38:56.803Z,969.15
2019-04-25T00:39:56.807Z,969.16
2019-04-25T00:40:56.830Z,969.18
2019-04-25T00:41:56.804Z,969.18
2019-04-25T00:42:56.802Z,969.13
2019-04-25T00:43:57.006Z,969.13
2019-04-25T00:44:56.802Z,969.14
2019-04-25T00:45:56.832Z,969.14
2019-04-25T00:46:56.883Z,969.10
2019-04-25T00:47:56.803Z,969.09
2019-04-25T00:48:56.799Z,969.06
2019-04-25T00:49:56.803Z,969.05
2019-04-25T00:50:56.822Z,969.04
2019-04-25T00:51:56.797Z,969.00
2019-04-25T00:52:56.801Z,969.01
2019-04-25T00:53:56.798Z,969.02
2019-04-25T00:54:56.796Z,969.02
2019-04-25T00:55:56.821Z,969.06
2019-04-25T00:56:56.794Z,969.07
2019-04-25T00:57:56.796Z,969.08
2019-04-25T00:58:56.793Z,969.09
2019-04-25T00:59:56.792Z,969.08
2019-04-25T01:00:56.987Z,969.01
2019-04-25T01:01:56.792Z,968.97
2019-04-25T01:02:56.790Z,968.99
2019-04-25T01:03:56.812Z,968.94
2019-04-25T01:04:56.789Z,968.93
2019-04-25T01:05:56.791Z,968.99
2019-04-25T01:06:56.819Z,968.98
2019-04-25T01:07:56.786Z,969.07
2019-04-25T01:08:56.786Z,969.09
2019-04-25T01:09:56.785Z,969.10
2019-04-25T01:10:56.784Z,969.11
2019-04-25T01:11:56.809Z,969.10
2019-04-25T01:12:56.783Z,969.12
2019-04-25T01:13:56.792Z,969.10
2019-04-25T01:14:56.780Z,969.07
2019-04-25T01:15:56.783Z,969.08
2019-04-25T01:16:56.805Z,968.99
2019-04-25T01:17:56.778Z,969.00
2019-04-25T01:18:56.776Z,968.94
2019-04-25T01:19:58.015Z,968.98
2019-04-25T01:20:56.776Z,968.98
2019-04-25T01:21:56.799Z,968.98
2019-04-25T01:22:57.759Z,968.97
2019-04-25T01:23:56.774Z,968.92
2019-04-25T01:24:56.775Z,968.83
2019-04-25T01:25:56.768Z,968.90
2019-04-25T01:26:56.792Z,968.88
2019-04-25T01:27:56.764Z,968.84
2019-04-25T01:28:56.762Z,968.82
2019-04-25T01:29:56.762Z,968.84
2019-04-25T01:30:56.764Z,968.95
2019-04-25T01:31:56.787Z,968.95
2019-04-25T01:32:56.773Z,968.99
2019-04-25T01:33:56.756Z,968.99
2019-04-25T01:34:58.947Z,969.09
2019-04-25T01:35:56.934Z,969.13
2019-04-25T01:36:56.994Z,969.17
2019-04-25T01:37:57.293Z,969.18
2019-04-25T01:38:58.797Z,969.22
2019-04-25T01:39:57.280Z,969.27
2019-04-25T01:40:57.363Z,969.33
2019-04-25T01:41:57.451Z,969.38
2019-04-25T01:42:56.741Z,969.42
2019-04-25T01:43:59.401Z,969.46
2019-04-25T01:44:58.107Z,969.48
2019-04-25T01:45:56.764Z,969.53
2019-04-25T01:46:56.739Z,969.58
2019-04-25T01:47:56.762Z,969.66
2019-04-25T01:48:56.733Z,969.69
2019-04-25T01:49:56.785Z,969.69
2019-04-25T01:50:56.739Z,969.73
2019-04-25T01:51:57.454Z,969.73
2019-04-25T01:52:56.790Z,969.73
2019-04-25T01:53:56.842Z,969.68
2019-04-25T01:54:57.147Z,969.72
2019-04-25T01:56:02.760Z,969.69
2019-04-25T01:56:57.369Z,969.71
2019-04-25T01:57:57.194Z,969.62
2019-04-25T01:58:57.356Z,969.61
2019-04-25T01:59:57.483Z,969.61
2019-04-25T02:00:57.334Z,969.59
2019-04-25T02:01:56.825Z,969.62
2019-04-25T02:02:56.788Z,969.65
2019-04-25T02:03:56.974Z,969.66
2019-04-25T02:04:58.784Z,969.70
2019-04-25T02:05:57.314Z,969.63
2019-04-25T02:06:57.050Z,969.67
2019-04-25T02:07:57.030Z,969.65
2019-04-25T02:08:57.225Z,969.60
2019-04-25T02:09:57.389Z,969.54
2019-04-25T02:10:57.058Z,969.50
2019-04-25T02:11:56.875Z,969.56
2019-04-25T02:12:57.636Z,969.54
2019-04-25T02:13:56.897Z,969.55
2019-04-25T02:14:56.917Z,969.56
2019-04-25T02:15:57.177Z,969.59
2019-04-25T02:16:57.191Z,969.63
2019-04-25T02:17:59.017Z,969.60
2019-04-25T02:18:57.733Z,969.60
2019-04-25T02:19:57.088Z,969.60
2019-04-25T02:20:59.977Z,969.62
2019-04-25T02:21:56.691Z,969.61
2019-04-25T02:22:56.717Z,969.55
2019-04-25T02:23:56.712Z,969.55
2019-04-25T02:24:57.102Z,969.56
2019-04-25T02:26:08.946Z,969.59
2019-04-25T02:26:57.275Z,969.68
2019-04-25T02:27:59.955Z,969.65
2019-04-25T02:28:57.306Z,969.62
2019-04-25T02:29:57.267Z,969.61
2019-04-25T02:30:59.792Z,969.65
2019-04-25T02:32:00.100Z,969.63
2019-04-25T02:33:00.904Z,969.69
2019-04-25T02:33:57.867Z,969.67
2019-04-25T02:34:59.689Z,969.69
2019-04-25T02:35:59.358Z,969.68
2019-04-25T02:37:00.631Z,969.72
2019-04-25T02:37:59.264Z,969.73
2019-04-25T02:38:59.540Z,969.74
2019-04-25T02:39:58.873Z,969.72
2019-04-25T02:40:59.502Z,969.73
2019-04-25T02:42:00.304Z,969.77
2019-04-25T02:42:58.517Z,969.76
2019-04-25T02:44:01.351Z,969.79
2019-04-25T02:45:00.159Z,969.79
2019-04-25T02:45:58.432Z,969.80
2019-04-25T02:46:59.108Z,969.79
2019-04-25T02:47:58.508Z,969.81
2019-04-25T02:48:59.592Z,969.78
2019-04-25T02:49:58.539Z,969.79
2019-04-25T02:50:58.080Z,969.76
2019-04-25T02:51:59.250Z,969.80
2019-04-25T02:52:57.440Z,969.85
2019-04-25T02:53:57.714Z,969.90
2019-04-25T02:54:58.426Z,969.88
2019-04-25T02:55:57.747Z,969.89
2019-04-25T02:56:57.484Z,969.94
2019-04-25T02:57:58.170Z,969.92
2019-04-25T02:58:56.670Z,969.89
2019-04-25T02:59:57.518Z,969.92
2019-04-25T03:01:03.450Z,969.85
2019-04-25T03:01:57.618Z,969.88
2019-04-25T03:02:57.928Z,969.86
2019-04-25T03:03:57.948Z,969.82
2019-04-25T03:04:58.373Z,969.80
2019-04-25T03:05:57.490Z,969.76
2019-04-25T03:06:58.414Z,969.73
2019-04-25T03:07:57.770Z,969.75
2019-04-25T03:08:57.841Z,969.77
2019-04-25T03:09:58.078Z,969.76
2019-04-25T03:10:58.199Z,969.79
2019-04-25T03:11:58.217Z,969.76
2019-04-25T03:12:58.399Z,969.74
2019-04-25T03:13:57.725Z,969.76
2019-04-25T03:14:58.279Z,969.72
2019-04-25T03:15:58.474Z,969.71
2019-04-25T03:16:58.543Z,969.71
2019-04-25T03:17:57.865Z,969.72
2019-04-25T03:18:58.850Z,969.75
2019-04-25T03:19:56.612Z,969.73
2019-04-25T03:20:56.774Z,969.77
2019-04-25T03:21:56.618Z,969.76
2019-04-25T03:22:56.606Z,969.75
2019-04-25T03:23:56.644Z,969.75
2019-04-25T03:24:56.608Z,969.75
2019-04-25T03:25:56.608Z,969.74
2019-04-25T03:26:56.605Z,969.73
2019-04-25T03:27:56.602Z,969.72
2019-04-25T03:28:56.632Z,969.64
2019-04-25T03:29:56.599Z,969.70
2019-04-25T03:30:57.215Z,969.73
2019-04-25T03:31:56.592Z,969.69
2019-04-25T03:32:56.605Z,969.75
2019-04-25T03:33:56.598Z,969.69
2019-04-25T03:34:56.612Z,969.72
2019-04-25T03:35:56.597Z,969.75
2019-04-25T03:36:56.585Z,969.74
2019-04-25T03:37:56.582Z,969.86
2019-04-25T03:38:56.579Z,969.92
2019-04-25T03:39:56.605Z,969.91
2019-04-25T03:40:56.577Z,969.92
2019-04-25T03:41:56.588Z,969.94
2019-04-25T03:42:56.578Z,969.95
2019-04-25T03:43:56.570Z,969.97
2019-04-25T03:44:56.596Z,969.93
2019-04-25T03:45:56.576Z,969.97
2019-04-25T03:46:56.565Z,969.94
2019-04-25T03:47:56.565Z,970.04
2019-04-25T03:48:56.563Z,970.02
2019-04-25T03:49:56.588Z,970.08
2019-04-25T03:50:56.561Z,970.04
2019-04-25T03:51:56.559Z,970.09
2019-04-25T03:52:56.556Z,970.20
2019-04-25T03:53:56.554Z,970.14
2019-04-25T03:54:56.842Z,970.15
2019-04-25T03:55:56.556Z,970.17
2019-04-25T03:56:56.549Z,970.14
2019-04-25T03:57:56.549Z,970.18
2019-04-25T03:58:56.548Z,970.17
2019-04-25T03:59:56.571Z,970.18
2019-04-25T04:00:56.547Z,970.18
2019-04-25T04:01:56.567Z,970.20
2019-04-25T04:02:56.541Z,970.17
2019-04-25T04:03:56.538Z,970.17
2019-04-25T04:04:56.562Z,970.16
2019-04-25T04:05:56.539Z,970.20
2019-04-25T04:06:56.537Z,970.25
2019-04-25T04:07:56.532Z,970.24
2019-04-25T04:08:56.530Z,970.22
2019-04-25T04:09:56.555Z,970.26
2019-04-25T04:10:56.525Z,970.19
2019-04-25T04:11:56.743Z,970.13
2019-04-25T04:12:56.522Z,970.12
2019-04-25T04:13:56.522Z,970.16
2019-04-25T04:14:56.547Z,970.10
2019-04-25T04:15:56.524Z,970.08
2019-04-25T04:16:56.514Z,970.03
2019-04-25T04:17:56.519Z,970.00
2019-04-25T04:18:56.525Z,970.08
2019-04-25T04:19:56.540Z,970.08
2019-04-25T04:20:56.513Z,970.10
2019-04-25T04:21:56.506Z,970.08
2019-04-25T04:22:56.505Z,970.00
2019-04-25T04:23:57.251Z,970.05
2019-04-25T04:24:56.525Z,970.10
2019-04-25T04:25:56.511Z,970.15
2019-04-25T04:27:03.463Z,970.21
2019-04-25T04:27:56.496Z,970.21
2019-04-25T04:28:56.498Z,970.28
2019-04-25T04:29:56.523Z,970.35
2019-04-25T04:30:56.488Z,970.41
2019-04-25T04:31:56.486Z,970.42
2019-04-25T04:32:56.489Z,970.42
2019-04-25T04:33:56.482Z,970.40
2019-04-25T04:34:56.480Z,970.50
2019-04-25T04:35:56.504Z,970.48
2019-04-25T04:36:56.476Z,970.52
2019-04-25T04:37:56.475Z,970.47
2019-04-25T04:38:56.493Z,970.53
2019-04-25T04:39:56.472Z,970.62
2019-04-25T04:40:56.499Z,970.64
2019-04-25T04:41:56.473Z,970.65
2019-04-25T04:42:56.466Z,970.70
2019-04-25T04:43:56.470Z,970.68
2019-04-25T04:44:56.461Z,970.74
2019-04-25T04:45:56.489Z,970.78
2019-04-25T04:46:56.470Z,970.74
2019-04-25T04:47:56.461Z,970.77
2019-04-25T04:48:56.458Z,970.78
2019-04-25T04:49:56.455Z,970.85
2019-04-25T04:50:56.908Z,970.85
2019-04-25T04:51:57.173Z,970.88
2019-04-25T04:52:56.451Z,970.91
2019-04-25T04:53:56.454Z,970.91
2019-04-25T04:55:05.366Z,970.87
2019-04-25T04:55:56.480Z,970.89
2019-04-25T04:56:56.450Z,970.88
2019-04-25T04:57:56.447Z,970.94
2019-04-25T04:58:56.446Z,970.94
2019-04-25T04:59:56.444Z,970.91
2019-04-25T05:00:56.468Z,970.95
2019-04-25T05:01:56.444Z,970.94
2019-04-25T05:02:56.458Z,971.02
2019-04-25T05:03:56.445Z,971.01
2019-04-25T05:04:56.443Z,971.08
2019-04-25T05:05:56.466Z,971.11
2019-04-25T05:06:56.437Z,971.12
2019-04-25T05:07:56.440Z,971.07
2019-04-25T05:08:56.437Z,971.16
2019-04-25T05:09:56.437Z,971.21
2019-04-25T05:10:57.435Z,971.22
2019-04-25T05:11:56.436Z,971.22
2019-04-25T05:12:56.428Z,971.36
2019-04-25T05:13:56.476Z,971.39
2019-04-25T05:14:56.431Z,971.43
2019-04-25T05:15:56.459Z,971.39
2019-04-25T05:16:56.429Z,971.40
2019-04-25T05:17:56.430Z,971.35
2019-04-25T05:18:56.429Z,971.34
2019-04-25T05:19:56.426Z,971.38
2019-04-25T05:20:56.453Z,971.39
2019-04-25T05:21:56.428Z,971.48
2019-04-25T05:22:56.429Z,971.51
2019-04-25T05:23:56.543Z,971.57
2019-04-25T05:24:56.550Z,971.60
2019-04-25T05:25:56.458Z,971.62
2019-04-25T05:26:56.426Z,971.58
2019-04-25T05:28:02.536Z,971.62
2019-04-25T05:28:57.057Z,971.63
2019-04-25T05:29:56.476Z,971.66
2019-04-25T05:30:56.477Z,971.72
2019-04-25T05:31:56.429Z,971.69
2019-04-25T05:32:56.430Z,971.69
2019-04-25T05:33:56.443Z,971.68
2019-04-25T05:34:56.438Z,971.69
2019-04-25T05:35:56.455Z,971.67
2019-04-25T05:36:56.427Z,971.66
2019-04-25T05:37:56.433Z,971.72
2019-04-25T05:38:56.436Z,971.69
2019-04-25T05:39:56.431Z,971.75
2019-04-25T05:40:56.468Z,971.64
2019-04-25T05:41:56.462Z,971.69
2019-04-25T05:42:56.430Z,971.64
2019-04-25T05:43:56.430Z,971.66
2019-04-25T05:44:56.557Z,971.66
2019-04-25T05:45:56.541Z,971.69
2019-04-25T05:46:56.534Z,971.76
2019-04-25T05:47:56.520Z,971.76
2019-04-25T05:48:56.433Z,971.71
2019-04-25T05:49:56.472Z,971.76
2019-04-25T05:50:56.433Z,971.83
2019-04-25T05:51:56.472Z,971.86
2019-04-25T05:52:56.450Z,971.89
2019-04-25T05:53:56.439Z,971.89
2019-04-25T05:54:56.441Z,971.92
2019-04-25T05:55:56.505Z,971.93
2019-04-25T05:56:59.464Z,971.91
2019-04-25T05:57:56.663Z,971.97
2019-04-25T05:58:56.578Z,972.01
2019-04-25T05:59:56.436Z,971.98
2019-04-25T06:00:57.067Z,972.00
2019-04-25T06:01:56.467Z,972.04
2019-04-25T06:02:56.438Z,972.07
2019-04-25T06:03:56.437Z,972.06
2019-04-25T06:04:56.442Z,972.08
2019-04-25T06:05:56.443Z,972.04
2019-04-25T06:06:56.467Z,972.03
2019-04-25T06:07:56.440Z,972.07
2019-04-25T06:08:56.445Z,972.05
2019-04-25T06:09:56.442Z,972.11
2019-04-25T06:10:56.445Z,972.10
2019-04-25T06:11:56.472Z,972.10
2019-04-25T06:12:56.446Z,972.14
2019-04-25T06:13:56.451Z,972.11
2019-04-25T06:14:57.067Z,972.10
2019-04-25T06:15:56.448Z,972.13
2019-04-25T06:16:56.474Z,972.12
2019-04-25T06:17:56.456Z,972.09
2019-04-25T06:18:56.474Z,972.12
2019-04-25T06:19:56.452Z,972.14
2019-04-25T06:20:56.459Z,972.17
2019-04-25T06:21:56.484Z,972.17
2019-04-25T06:22:56.456Z,972.16
2019-04-25T06:23:56.459Z,972.14
2019-04-25T06:24:56.471Z,972.16
2019-04-25T06:25:56.477Z,972.14
2019-04-25T06:26:56.488Z,972.13
2019-04-25T06:27:59.089Z,972.17
2019-04-25T06:28:59.546Z,972.13
2019-04-25T06:29:58.979Z,972.19
2019-04-25T06:30:56.471Z,972.16
2019-04-25T06:32:06.036Z,972.21
2019-04-25T06:32:56.475Z,972.21
2019-04-25T06:33:56.480Z,972.20
2019-04-25T06:34:56.561Z,972.23
2019-04-25T06:35:56.966Z,972.27
2019-04-25T06:36:56.513Z,972.32
2019-04-25T06:37:56.489Z,972.26
2019-04-25T06:38:56.489Z,972.27
2019-04-25T06:39:56.493Z,972.26
2019-04-25T06:40:56.499Z,972.26
2019-04-25T06:41:56.506Z,972.19
2019-04-25T06:42:56.534Z,972.22
2019-04-25T06:43:56.503Z,972.23
2019-04-25T06:44:56.508Z,972.28
2019-04-25T06:45:56.513Z,972.32
2019-04-25T06:46:56.511Z,972.26
2019-04-25T06:47:56.592Z,972.26
2019-04-25T06:48:56.519Z,972.25
2019-04-25T06:49:56.523Z,972.26
2019-04-25T06:50:56.524Z,972.34
2019-04-25T06:51:56.527Z,972.27
2019-04-25T06:52:56.566Z,972.34
2019-04-25T06:53:56.534Z,972.35
2019-04-25T06:54:56.539Z,972.35
2019-04-25T06:55:56.547Z,972.35
2019-04-25T06:56:56.541Z,972.36
2019-04-25T06:58:08.923Z,972.36
2019-04-25T06:58:56.548Z,972.37
2019-04-25T06:59:56.551Z,972.32
2019-04-25T07:01:00.563Z,972.37
2019-04-25T07:01:56.560Z,972.43
2019-04-25T07:02:56.591Z,972.41
2019-04-25T07:03:56.566Z,972.41
2019-04-25T07:04:56.573Z,972.40
2019-04-25T07:05:56.577Z,972.41
2019-04-25T07:06:56.576Z,972.37
2019-04-25T07:07:56.642Z,972.29
2019-04-25T07:08:56.584Z,972.23
2019-04-25T07:09:56.624Z,972.23
2019-04-25T07:10:56.601Z,972.30
2019-04-25T07:11:56.599Z,972.32
2019-04-25T07:12:56.631Z,972.29
2019-04-25T07:13:56.604Z,972.27
2019-04-25T07:14:56.611Z,972.29
2019-04-25T07:15:56.612Z,972.32
2019-04-25T07:16:56.617Z,972.43
2019-04-25T07:17:56.646Z,972.40
2019-04-25T07:18:56.626Z,972.38
2019-04-25T07:19:56.626Z,972.35
2019-04-25T07:20:56.633Z,972.39
2019-04-25T07:21:56.636Z,972.43
2019-04-25T07:22:56.667Z,972.39
2019-04-25T07:23:56.644Z,972.41
2019-04-25T07:24:56.648Z,972.46
2019-04-25T07:25:56.660Z,972.46
2019-04-25T07:26:56.657Z,972.42
2019-04-25T07:27:56.689Z,972.44
2019-04-25T07:28:56.684Z,972.45
2019-04-25T07:29:56.676Z,972.45
2019-04-25T07:30:56.676Z,972.43
2019-04-25T07:31:56.684Z,972.45
2019-04-25T07:32:56.714Z,972.43
2019-04-25T07:33:56.693Z,972.42
2019-04-25T07:34:56.751Z,972.40
2019-04-25T07:35:57.150Z,972.41
2019-04-25T07:36:56.711Z,972.41
2019-04-25T07:37:56.741Z,972.41
2019-04-25T07:39:05.847Z,972.37
2019-04-25T07:39:56.730Z,972.38
2019-04-25T07:40:56.737Z,972.42
2019-04-25T07:41:56.741Z,972.39
2019-04-25T07:42:56.749Z,972.38
2019-04-25T07:43:56.780Z,972.36
2019-04-25T07:44:56.793Z,972.39
2019-04-25T07:45:56.767Z,972.40
2019-04-25T07:46:56.774Z,972.35
2019-04-25T07:47:56.835Z,972.35
2019-04-25T07:48:56.812Z,972.35
2019-04-25T07:49:56.797Z,972.38
2019-04-25T07:50:56.803Z,972.34
2019-04-25T07:51:56.809Z,972.36
2019-04-25T07:52:56.817Z,972.32
2019-04-25T07:53:56.857Z,972.31
2019-04-25T07:54:56.830Z,972.35
2019-04-25T07:55:56.837Z,972.39
2019-04-25T07:56:56.847Z,972.41
2019-04-25T07:57:56.856Z,972.38
2019-04-25T07:58:56.888Z,972.37
2019-04-25T07:59:56.869Z,972.32
2019-04-25T08:00:56.878Z,972.38
2019-04-25T08:01:56.886Z,972.32
2019-04-25T08:02:56.897Z,972.30
2019-04-25T08:03:56.928Z,972.29
2019-04-25T08:04:56.908Z,972.30
2019-04-25T08:05:56.924Z,972.28
2019-04-25T08:06:56.931Z,972.25
2019-04-25T08:07:56.938Z,972.27
2019-04-25T08:08:56.984Z,972.29
2019-04-25T08:09:56.954Z,972.25
2019-04-25T08:10:56.965Z,972.24
2019-04-25T08:11:56.974Z,972.26
2019-04-25T08:12:56.980Z,972.22
2019-04-25T08:13:57.014Z,972.21
2019-04-25T08:14:57.105Z,972.26
2019-04-25T08:15:57.007Z,972.16
2019-04-25T08:16:57.019Z,972.22
2019-04-25T08:17:57.027Z,972.17
2019-04-25T08:18:57.081Z,972.20
2019-04-25T08:19:57.048Z,972.23
2019-04-25T08:20:57.058Z,972.21
2019-04-25T08:21:57.066Z,972.22
2019-04-25T08:22:59.042Z,972.20
2019-04-25T08:23:57.111Z,972.21
2019-04-25T08:24:57.125Z,972.24
2019-04-25T08:25:57.104Z,972.28
2019-04-25T08:26:57.112Z,972.27
2019-04-25T08:27:57.123Z,972.31
2019-04-25T08:28:57.837Z,972.36
2019-04-25T08:29:57.169Z,972.30
2019-04-25T08:30:57.153Z,972.31
2019-04-25T08:31:57.161Z,972.30
2019-04-25T08:32:57.173Z,972.28
2019-04-25T08:33:57.184Z,972.39
2019-04-25T08:34:57.218Z,972.38
2019-04-25T08:36:08.244Z,972.37
2019-04-25T08:36:57.219Z,972.37
2019-04-25T08:37:57.224Z,972.36
2019-04-25T08:38:57.237Z,972.41
2019-04-25T08:39:57.271Z,972.41
2019-04-25T08:40:57.257Z,972.44
2019-04-25T08:41:57.266Z,972.39
2019-04-25T08:42:57.277Z,972.40
2019-04-25T08:43:57.285Z,972.41
2019-04-25T08:44:58.108Z,972.42
2019-04-25T08:45:57.310Z,972.48
2019-04-25T08:46:57.319Z,972.40
2019-04-25T08:47:57.331Z,972.38
2019-04-25T08:48:57.368Z,972.40
2019-04-25T08:49:57.608Z,972.40
2019-04-25T08:50:57.361Z,972.38
2019-04-25T08:51:57.776Z,972.32
2019-04-25T08:52:57.402Z,972.32
2019-04-25T08:53:57.396Z,972.23
2019-04-25T08:54:58.081Z,972.30
2019-04-25T08:55:57.456Z,972.26
2019-04-25T08:56:57.435Z,972.26
2019-04-25T08:57:57.442Z,972.32
2019-04-25T08:59:05.533Z,972.30
2019-04-25T08:59:57.490Z,972.31
2019-04-25T09:01:00.913Z,972.30
2019-04-25T09:01:57.485Z,972.29
2019-04-25T09:02:57.509Z,972.30
2019-04-25T09:03:57.506Z,972.30
2019-04-25T09:04:57.546Z,972.29
2019-04-25T09:05:57.579Z,972.33
2019-04-25T09:06:57.547Z,972.34
2019-04-25T09:07:57.550Z,972.34
2019-04-25T09:08:57.560Z,972.34
2019-04-25T09:09:57.603Z,972.29
2019-04-25T09:10:57.584Z,972.28
2019-04-25T09:11:57.597Z,972.29
2019-04-25T09:12:57.605Z,972.32
2019-04-25T09:13:57.617Z,972.28
2019-04-25T09:14:57.657Z,972.30
2019-04-25T09:15:57.642Z,972.25
2019-04-25T09:16:57.650Z,972.24
2019-04-25T09:17:57.664Z,972.25
2019-04-25T09:18:57.672Z,972.23
2019-04-25T09:19:57.717Z,972.25
2019-04-25T09:20:57.700Z,972.12
2019-04-25T09:21:57.717Z,972.19
2019-04-25T09:22:57.734Z,972.18
2019-04-25T09:23:57.739Z,972.22
2019-04-25T09:24:57.773Z,972.21
2019-04-25T09:25:57.771Z,972.10
2019-04-25T09:26:57.775Z,972.13
2019-04-25T09:27:57.783Z,972.11
2019-04-25T09:28:57.795Z,972.13
2019-04-25T09:29:57.889Z,972.15
2019-04-25T09:30:57.816Z,972.00
2019-04-25T09:31:57.831Z,972.13
2019-04-25T09:32:57.851Z,972.16
2019-04-25T09:33:57.856Z,972.14
2019-04-25T09:34:57.873Z,972.19
2019-04-25T09:35:57.913Z,972.11
2019-04-25T09:36:57.914Z,972.08
2019-04-25T09:37:57.905Z,972.06
2019-04-25T09:38:57.918Z,972.06
2019-04-25T09:39:57.936Z,972.09
2019-04-25T09:40:57.975Z,972.01
2019-04-25T09:41:57.956Z,972.07
2019-04-25T09:42:57.966Z,972.02
2019-04-25T09:43:57.986Z,972.11
2019-04-25T09:44:57.994Z,971.91
2019-04-25T09:45:58.032Z,972.01
2019-04-25T09:46:58.026Z,972.09
2019-04-25T09:47:58.042Z,971.99
2019-04-25T09:48:58.045Z,971.99
2019-04-25T09:49:58.074Z,972.09
2019-04-25T09:50:58.101Z,972.00
2019-04-25T09:51:58.104Z,972.04
2019-04-25T09:52:58.101Z,971.96
2019-04-25T09:53:58.114Z,972.00
2019-04-25T09:54:58.124Z,971.96
2019-04-25T09:55:58.162Z,972.00
2019-04-25T09:56:58.154Z,972.00
2019-04-25T09:57:58.160Z,971.94
2019-04-25T09:58:58.173Z,971.98
2019-04-25T09:59:58.202Z,971.93
2019-04-25T10:00:58.226Z,971.90
2019-04-25T10:01:58.213Z,971.90
2019-04-25T10:02:58.244Z,971.85
2019-04-25T10:03:58.244Z,971.97
2019-04-25T10:04:58.254Z,971.95
2019-04-25T10:05:58.377Z,971.96
2019-04-25T10:06:58.306Z,972.00
2019-04-25T10:07:58.295Z,971.96
2019-04-25T10:08:58.322Z,971.98
2019-04-25T10:09:58.411Z,971.94
2019-04-25T10:10:58.361Z,971.89
2019-04-25T10:11:58.376Z,971.95
2019-04-25T10:12:58.365Z,971.89
2019-04-25T10:13:58.383Z,971.91
2019-04-25T10:14:58.393Z,971.69
2019-04-25T10:15:58.409Z,971.93
2019-04-25T10:16:58.451Z,971.91
2019-04-25T10:17:58.439Z,971.90
2019-04-25T10:18:58.452Z,971.90
2019-04-25T10:19:58.466Z,971.95
2019-04-25T10:20:58.481Z,971.91
2019-04-25T10:21:58.539Z,971.94
2019-04-25T10:22:58.515Z,971.92
2019-04-25T10:23:58.528Z,971.86
2019-04-25T10:25:00.667Z,971.95
2019-04-25T10:25:58.557Z,971.89
2019-04-25T10:26:58.598Z,971.87
2019-04-25T10:27:58.592Z,971.83
2019-04-25T10:28:58.617Z,971.87
2019-04-25T10:29:58.618Z,971.81
2019-04-25T10:30:58.630Z,971.82
2019-04-25T10:31:58.671Z,971.81
2019-04-25T10:32:58.661Z,971.76
2019-04-25T10:33:58.677Z,971.81
2019-04-25T10:34:58.692Z,971.75
2019-04-25T10:36:01.135Z,971.76
2019-04-25T10:36:58.755Z,971.90
2019-04-25T10:37:58.739Z,971.69
2019-04-25T10:39:07.646Z,971.72
2019-04-25T10:39:58.773Z,971.68
2019-04-25T10:40:58.785Z,971.70
2019-04-25T10:41:58.829Z,971.64
2019-04-25T10:42:58.824Z,971.64
2019-04-25T10:43:58.862Z,971.68
2019-04-25T10:44:58.853Z,971.61
2019-04-25T10:45:59.552Z,971.57
2019-04-25T10:46:58.907Z,971.61
2019-04-25T10:47:58.904Z,971.70
2019-04-25T10:48:59.654Z,971.67
2019-04-25T10:49:59.195Z,971.68
2019-04-25T10:50:58.944Z,971.79
2019-04-25T10:51:58.986Z,971.67
2019-04-25T10:52:58.975Z,971.69
2019-04-25T10:53:58.993Z,971.68
2019-04-25T10:54:59.005Z,971.65
2019-04-25T10:55:59.020Z,971.61
2019-04-25T10:56:59.111Z,971.59
2019-04-25T10:57:59.069Z,971.54
2019-04-25T10:58:59.074Z,971.51
2019-04-25T11:00:06.241Z,971.58
2019-04-25T11:00:59.101Z,971.55
2019-04-25T11:01:59.145Z,971.49
2019-04-25T11:02:59.139Z,971.50
2019-04-25T11:03:59.169Z,971.45
2019-04-25T11:04:59.185Z,971.56
2019-04-25T11:05:59.195Z,971.46
2019-04-25T11:06:59.220Z,971.42
2019-04-25T11:07:59.213Z,971.43
2019-04-25T11:08:59.241Z,971.41
2019-04-25T11:09:59.247Z,971.45
2019-04-25T11:10:59.258Z,971.40
2019-04-25T11:11:59.300Z,971.37
2019-04-25T11:12:59.292Z,971.38
2019-04-25T11:13:59.309Z,971.25
2019-04-25T11:14:59.322Z,971.32
2019-04-25T11:15:59.335Z,971.36
2019-04-25T11:16:59.400Z,971.34
2019-04-25T11:17:59.422Z,971.38
2019-04-25T11:18:59.415Z,971.33
2019-04-25T11:19:59.403Z,971.28
2019-04-25T11:20:59.423Z,971.32
2019-04-25T11:21:59.464Z,971.31
2019-04-25T11:22:59.448Z,971.32
2019-04-25T11:23:59.468Z,971.31
2019-04-25T11:24:59.486Z,971.24
2019-04-25T11:25:59.543Z,971.28
2019-04-25T11:26:59.546Z,971.13
2019-04-25T11:27:59.538Z,971.25
2019-04-25T11:28:59.581Z,971.14
2019-04-25T11:30:09.312Z,971.22
2019-04-25T11:30:59.585Z,971.18
2019-04-25T11:31:59.631Z,971.12
2019-04-25T11:32:59.617Z,971.18
2019-04-25T11:33:59.636Z,971.20
2019-04-25T11:34:59.710Z,971.25
2019-04-25T11:35:59.667Z,971.15
2019-04-25T11:36:59.764Z,971.19
2019-04-25T11:37:59.775Z,971.20
2019-04-25T11:38:59.717Z,971.13
2019-04-25T11:39:59.738Z,971.13
2019-04-25T11:40:59.751Z,971.00
2019-04-25T11:41:59.769Z,971.11
2019-04-25T11:42:59.845Z,971.08
2019-04-25T11:44:00.487Z,971.15
2019-04-25T11:45:00.552Z,971.07
2019-04-25T11:45:59.835Z,971.10
2019-04-25T11:46:59.849Z,971.04
2019-04-25T11:47:59.893Z,971.08
2019-04-25T11:48:59.916Z,970.96
2019-04-25T11:49:59.949Z,971.10
2019-04-25T11:50:59.929Z,971.03
2019-04-25T11:51:59.934Z,970.99
2019-04-25T11:53:00.922Z,971.04
2019-04-25T11:53:59.967Z,971.06
2019-04-25T11:54:59.983Z,971.07
2019-04-25T11:56:00.001Z,970.94
2019-04-25T11:57:00.016Z,970.98
2019-04-25T11:58:00.062Z,970.97
2019-04-25T11:59:00.058Z,970.91
2019-04-25T12:00:00.080Z,970.96
2019-04-25T12:01:00.093Z,970.96
2019-04-25T12:02:00.103Z,970.93
2019-04-25T12:03:00.141Z,970.91
2019-04-25T12:04:00.139Z,970.92
2019-04-25T12:05:00.221Z,970.91
2019-04-25T12:06:00.173Z,970.84
2019-04-25T12:07:00.199Z,970.85
2019-04-25T12:08:00.231Z,970.81
2019-04-25T12:09:00.270Z,970.83
2019-04-25T12:10:00.248Z,970.75
2019-04-25T12:11:00.381Z,970.67
2019-04-25T12:12:01.121Z,970.67
2019-04-25T12:13:01.134Z,970.68
2019-04-25T12:14:00.307Z,970.68
2019-04-25T12:15:00.319Z,970.66
2019-04-25T12:16:00.381Z,970.59
2019-04-25T12:17:00.362Z,970.56
2019-04-25T12:18:00.401Z,970.50
2019-04-25T12:19:00.403Z,970.54
2019-04-25T12:20:00.407Z,970.71
2019-04-25T12:21:00.422Z,970.49
2019-04-25T12:22:00.442Z,970.50
2019-04-25T12:23:08.412Z,970.50
2019-04-25T12:24:01.866Z,970.57
2019-04-25T12:25:00.497Z,970.43
2019-04-25T12:26:00.507Z,970.41
2019-04-25T12:27:00.526Z,970.50
2019-04-25T12:28:00.585Z,970.45
2019-04-25T12:29:04.206Z,970.45